sensor_id;sensor_type;location;lat;lon;timestamp;pressure;altitude;pressure_sealevel;temperature
9119;BMP180;4594;50.994;7.126;2022-09-09T00:00:51;99995.00;;;21.80
9119;BMP180;4594;50.994;7.126;2022-09-09T00:03:26;99998.00;;;21.80
9119;BMP180;4594;50.994;7.126;2022-09-09T00:09:08;99982.00;;;21.80
9119;BMP180;4594;50.994;7.126;2022-09-09T00:11:52;99985.00;;;21.80
9119;BMP180;4594;50.994;7.126;2022-09-09T00:17:36;99980.00;;;21.70
9119;BMP180;4594;50.994;7.126;2022-09-09T00:20:35;99979.00;;;21.70
9119;BMP180;4594;50.994;7.126;2022-09-09T00:23:34;99974.00;;;21.70
9119;BMP180;4594;50.994;7.126;2022-09-09T00:26:41;99984.00;;;21.60
9119;BMP180;4594;50.994;7.126;2022-09-09T00:29:31;99983.00;;;21.60
9119;BMP180;4594;50.994;7.126;2022-09-09T00:32:12;99977.00;;;21.60
9119;BMP180;4594;50.994;7.126;2022-09-09T00:34:55;99969.00;;;21.60
9119;BMP180;4594;50.994;7.126;2022-09-09T00:37:25;99969.00;;;21.60
9119;BMP180;4594;50.994;7.126;2022-09-09T00:39:57;99975.00;;;21.60
9119;BMP180;4594;50.994;7.126;2022-09-09T00:45:50;99968.00;;;21.50
9119;BMP180;4594;50.994;7.126;2022-09-09T00:48:18;99981.00;;;21.50
9119;BMP180;4594;50.994;7.126;2022-09-09T00:51:05;99975.00;;;21.60
9119;BMP180;4594;50.994;7.126;2022-09-09T00:54:38;99975.00;;;21.60
9119;BMP180;4594;50.994;7.126;2022-09-09T00:56:59;99980.00;;;21.60
9119;BMP180;4594;50.994;7.126;2022-09-09T01:00:21;99988.00;;;21.70
9119;BMP180;4594;50.994;7.126;2022-09-09T01:11:31;99973.00;;;21.80
9119;BMP180;4594;50.994;7.126;2022-09-09T01:16:29;99976.00;;;21.80
9119;BMP180;4594;50.994;7.126;2022-09-09T01:18:58;99977.00;;;21.80
9119;BMP180;4594;50.994;7.126;2022-09-09T01:21:50;99974.00;;;21.90
9119;BMP180;4594;50.994;7.126;2022-09-09T01:27:34;99968.00;;;21.80
9119;BMP180;4594;50.994;7.126;2022-09-09T01:30:08;99959.00;;;21.90
9119;BMP180;4594;50.994;7.126;2022-09-09T01:32:54;99961.00;;;21.90
9119;BMP180;4594;50.994;7.126;2022-09-09T01:38:09;99978.00;;;21.80
9119;BMP180;4594;50.994;7.126;2022-09-09T01:40:35;99977.00;;;21.90
9119;BMP180;4594;50.994;7.126;2022-09-09T01:43:01;99974.00;;;21.90
9119;BMP180;4594;50.994;7.126;2022-09-09T01:45:29;99969.00;;;21.90
9119;BMP180;4594;50.994;7.126;2022-09-09T01:47:55;99979.00;;;21.90
9119;BMP180;4594;50.994;7.126;2022-09-09T01:50:22;99984.00;;;21.90
9119;BMP180;4594;50.994;7.126;2022-09-09T01:52:58;99980.00;;;21.90
9119;BMP180;4594;50.994;7.126;2022-09-09T01:55:42;99978.00;;;21.90
9119;BMP180;4594;50.994;7.126;2022-09-09T01:58:24;99996.00;;;21.90
9119;BMP180;4594;50.994;7.126;2022-09-09T02:01:02;99984.00;;;21.90
9119;BMP180;4594;50.994;7.126;2022-09-09T02:03:32;99986.00;;;21.90
9119;BMP180;4594;50.994;7.126;2022-09-09T02:06:26;99982.00;;;21.90
9119;BMP180;4594;50.994;7.126;2022-09-09T02:08:56;99989.00;;;21.90
9119;BMP180;4594;50.994;7.126;2022-09-09T02:11:26;99981.00;;;22.00
9119;BMP180;4594;50.994;7.126;2022-09-09T02:14:10;99992.00;;;22.00
9119;BMP180;4594;50.994;7.126;2022-09-09T02:17:01;99978.00;;;22.00
9119;BMP180;4594;50.994;7.126;2022-09-09T02:19:35;99987.00;;;22.00
9119;BMP180;4594;50.994;7.126;2022-09-09T02:22:02;99985.00;;;22.00
9119;BMP180;4594;50.994;7.126;2022-09-09T02:24:36;99978.00;;;22.00
9119;BMP180;4594;50.994;7.126;2022-09-09T02:27:07;99968.00;;;22.00
9119;BMP180;4594;50.994;7.126;2022-09-09T02:29:42;99975.00;;;22.00
9119;BMP180;4594;50.994;7.126;2022-09-09T02:32:14;99978.00;;;22.00
9119;BMP180;4594;50.994;7.126;2022-09-09T02:34:53;99979.00;;;22.00
9119;BMP180;4594;50.994;7.126;2022-09-09T02:37:29;99960.00;;;22.00
9119;BMP180;4594;50.994;7.126;2022-09-09T02:39:57;99976.00;;;22.00
9119;BMP180;4594;50.994;7.126;2022-09-09T02:42:23;99972.00;;;22.00
9119;BMP180;4594;50.994;7.126;2022-09-09T02:44:49;99981.00;;;22.00
9119;BMP180;4594;50.994;7.126;2022-09-09T02:50:36;99968.00;;;22.00
9119;BMP180;4594;50.994;7.126;2022-09-09T02:53:23;99974.00;;;22.00
9119;BMP180;4594;50.994;7.126;2022-09-09T02:56:09;99968.00;;;22.00
9119;BMP180;4594;50.994;7.126;2022-09-09T02:58:39;99981.00;;;22.00
9119;BMP180;4594;50.994;7.126;2022-09-09T03:01:05;99974.00;;;22.00
9119;BMP180;4594;50.994;7.126;2022-09-09T03:03:32;99971.00;;;22.00
9119;BMP180;4594;50.994;7.126;2022-09-09T03:05:58;99972.00;;;22.00
9119;BMP180;4594;50.994;7.126;2022-09-09T03:08:24;99969.00;;;22.00
9119;BMP180;4594;50.994;7.126;2022-09-09T03:10:50;99968.00;;;22.00
9119;BMP180;4594;50.994;7.126;2022-09-09T03:13:15;99966.00;;;22.00
9119;BMP180;4594;50.994;7.126;2022-09-09T03:15:42;99966.00;;;22.10
9119;BMP180;4594;50.994;7.126;2022-09-09T03:18:07;99955.00;;;22.10
9119;BMP180;4594;50.994;7.126;2022-09-09T03:20:33;99952.00;;;22.10
9119;BMP180;4594;50.994;7.126;2022-09-09T03:23:00;99959.00;;;22.10
9119;BMP180;4594;50.994;7.126;2022-09-09T03:25:26;99948.00;;;22.10
9119;BMP180;4594;50.994;7.126;2022-09-09T03:27:54;99962.00;;;22.10
9119;BMP180;4594;50.994;7.126;2022-09-09T03:30:26;99956.00;;;22.10
9119;BMP180;4594;50.994;7.126;2022-09-09T03:32:52;99962.00;;;22.10
9119;BMP180;4594;50.994;7.126;2022-09-09T03:35:18;99962.00;;;22.10
9119;BMP180;4594;50.994;7.126;2022-09-09T03:37:44;99958.00;;;22.10
9119;BMP180;4594;50.994;7.126;2022-09-09T03:40:11;99967.00;;;22.10
9119;BMP180;4594;50.994;7.126;2022-09-09T03:42:38;99957.00;;;22.10
9119;BMP180;4594;50.994;7.126;2022-09-09T03:45:07;99965.00;;;22.10
9119;BMP180;4594;50.994;7.126;2022-09-09T03:47:34;99959.00;;;22.10
9119;BMP180;4594;50.994;7.126;2022-09-09T03:50:00;99963.00;;;22.10
9119;BMP180;4594;50.994;7.126;2022-09-09T03:52:26;99962.00;;;22.10
9119;BMP180;4594;50.994;7.126;2022-09-09T03:54:53;99963.00;;;22.10
9119;BMP180;4594;50.994;7.126;2022-09-09T03:57:20;99972.00;;;22.10
9119;BMP180;4594;50.994;7.126;2022-09-09T03:59:46;99958.00;;;22.10
9119;BMP180;4594;50.994;7.126;2022-09-09T04:02:11;99967.00;;;22.10
9119;BMP180;4594;50.994;7.126;2022-09-09T04:04:37;99956.00;;;22.10
9119;BMP180;4594;50.994;7.126;2022-09-09T04:07:03;99968.00;;;22.00
9119;BMP180;4594;50.994;7.126;2022-09-09T04:09:31;99968.00;;;22.00
9119;BMP180;4594;50.994;7.126;2022-09-09T04:11:57;99967.00;;;22.00
9119;BMP180;4594;50.994;7.126;2022-09-09T04:14:23;99966.00;;;22.00
9119;BMP180;4594;50.994;7.126;2022-09-09T04:16:48;99968.00;;;22.00
9119;BMP180;4594;50.994;7.126;2022-09-09T04:19:14;99959.00;;;22.00
9119;BMP180;4594;50.994;7.126;2022-09-09T04:21:43;99950.00;;;22.00
9119;BMP180;4594;50.994;7.126;2022-09-09T04:24:09;99943.00;;;22.00
9119;BMP180;4594;50.994;7.126;2022-09-09T04:26:36;99951.00;;;22.00
9119;BMP180;4594;50.994;7.126;2022-09-09T04:29:04;99951.00;;;22.10
9119;BMP180;4594;50.994;7.126;2022-09-09T04:31:30;99943.00;;;22.10
9119;BMP180;4594;50.994;7.126;2022-09-09T04:33:56;99959.00;;;22.10
9119;BMP180;4594;50.994;7.126;2022-09-09T04:36:22;99957.00;;;22.10
9119;BMP180;4594;50.994;7.126;2022-09-09T04:38:48;99954.00;;;22.10
9119;BMP180;4594;50.994;7.126;2022-09-09T04:41:15;99948.00;;;22.10
9119;BMP180;4594;50.994;7.126;2022-09-09T04:43:42;99956.00;;;22.10
9119;BMP180;4594;50.994;7.126;2022-09-09T04:46:08;99979.00;;;22.10
9119;BMP180;4594;50.994;7.126;2022-09-09T04:48:34;99974.00;;;22.10
9119;BMP180;4594;50.994;7.126;2022-09-09T04:51:09;99984.00;;;22.00
9119;BMP180;4594;50.994;7.126;2022-09-09T04:53:36;99980.00;;;22.20
9119;BMP180;4594;50.994;7.126;2022-09-09T04:56:12;99980.00;;;22.20
9119;BMP180;4594;50.994;7.126;2022-09-09T04:58:39;99985.00;;;22.20
9119;BMP180;4594;50.994;7.126;2022-09-09T05:01:11;99977.00;;;22.20
9119;BMP180;4594;50.994;7.126;2022-09-09T05:03:37;99964.00;;;22.20
9119;BMP180;4594;50.994;7.126;2022-09-09T05:06:18;99976.00;;;22.20
9119;BMP180;4594;50.994;7.126;2022-09-09T05:08:44;99978.00;;;22.20
9119;BMP180;4594;50.994;7.126;2022-09-09T05:11:34;99976.00;;;22.20
9119;BMP180;4594;50.994;7.126;2022-09-09T05:14:02;99974.00;;;22.20
9119;BMP180;4594;50.994;7.126;2022-09-09T05:16:28;99976.00;;;22.20
9119;BMP180;4594;50.994;7.126;2022-09-09T05:18:56;99977.00;;;22.20
9119;BMP180;4594;50.994;7.126;2022-09-09T05:21:24;99971.00;;;22.20
9119;BMP180;4594;50.994;7.126;2022-09-09T05:23:52;99978.00;;;22.20
9119;BMP180;4594;50.994;7.126;2022-09-09T05:26:21;99975.00;;;22.20
9119;BMP180;4594;50.994;7.126;2022-09-09T05:28:47;99967.00;;;22.00
9119;BMP180;4594;50.994;7.126;2022-09-09T05:31:16;99963.00;;;21.80
9119;BMP180;4594;50.994;7.126;2022-09-09T05:33:44;99971.00;;;21.70
9119;BMP180;4594;50.994;7.126;2022-09-09T05:36:14;99969.00;;;21.60
9119;BMP180;4594;50.994;7.126;2022-09-09T05:38:41;99985.00;;;21.50
9119;BMP180;4594;50.994;7.126;2022-09-09T05:41:08;99987.00;;;21.50
9119;BMP180;4594;50.994;7.126;2022-09-09T05:43:34;99994.00;;;21.30
9119;BMP180;4594;50.994;7.126;2022-09-09T05:46:16;99980.00;;;21.10
9119;BMP180;4594;50.994;7.126;2022-09-09T05:48:44;99980.00;;;21.00
9119;BMP180;4594;50.994;7.126;2022-09-09T05:51:14;99971.00;;;20.80
9119;BMP180;4594;50.994;7.126;2022-09-09T05:53:44;99984.00;;;20.70
9119;BMP180;4594;50.994;7.126;2022-09-09T05:56:17;99988.00;;;20.70
9119;BMP180;4594;50.994;7.126;2022-09-09T05:58:44;99984.00;;;20.70
9119;BMP180;4594;50.994;7.126;2022-09-09T06:01:16;99966.00;;;20.60
9119;BMP180;4594;50.994;7.126;2022-09-09T06:03:44;99976.00;;;20.60
9119;BMP180;4594;50.994;7.126;2022-09-09T06:06:19;99979.00;;;20.60
9119;BMP180;4594;50.994;7.126;2022-09-09T06:08:46;99973.00;;;20.60
9119;BMP180;4594;50.994;7.126;2022-09-09T06:11:22;99983.00;;;20.50
9119;BMP180;4594;50.994;7.126;2022-09-09T06:13:49;99976.00;;;20.50
9119;BMP180;4594;50.994;7.126;2022-09-09T06:16:19;99985.00;;;20.50
9119;BMP180;4594;50.994;7.126;2022-09-09T06:18:45;99983.00;;;20.50
9119;BMP180;4594;50.994;7.126;2022-09-09T06:21:23;99987.00;;;20.50
9119;BMP180;4594;50.994;7.126;2022-09-09T06:23:50;99984.00;;;20.50
9119;BMP180;4594;50.994;7.126;2022-09-09T06:28:50;99968.00;;;20.50
9119;BMP180;4594;50.994;7.126;2022-09-09T06:31:19;99986.00;;;20.50
9119;BMP180;4594;50.994;7.126;2022-09-09T06:33:49;99979.00;;;20.60
9119;BMP180;4594;50.994;7.126;2022-09-09T06:36:30;99980.00;;;20.60
9119;BMP180;4594;50.994;7.126;2022-09-09T06:38:56;99974.00;;;20.60
9119;BMP180;4594;50.994;7.126;2022-09-09T06:41:25;99987.00;;;20.70
9119;BMP180;4594;50.994;7.126;2022-09-09T06:43:52;99985.00;;;20.70
9119;BMP180;4594;50.994;7.126;2022-09-09T06:46:21;99983.00;;;20.90
9119;BMP180;4594;50.994;7.126;2022-09-09T06:48:48;99967.00;;;21.20
9119;BMP180;4594;50.994;7.126;2022-09-09T06:51:20;99981.00;;;21.40
9119;BMP180;4594;50.994;7.126;2022-09-09T06:53:55;99980.00;;;21.60
9119;BMP180;4594;50.994;7.126;2022-09-09T06:56:33;99981.00;;;21.90
9119;BMP180;4594;50.994;7.126;2022-09-09T06:59:02;99981.00;;;22.30
9119;BMP180;4594;50.994;7.126;2022-09-09T07:01:33;99977.00;;;22.50
9119;BMP180;4594;50.994;7.126;2022-09-09T07:04:00;99976.00;;;22.70
9119;BMP180;4594;50.994;7.126;2022-09-09T07:06:32;99978.00;;;22.90
9119;BMP180;4594;50.994;7.126;2022-09-09T07:09:04;99969.00;;;23.00
9119;BMP180;4594;50.994;7.126;2022-09-09T07:11:48;99973.00;;;23.20
9119;BMP180;4594;50.994;7.126;2022-09-09T07:14:15;99974.00;;;23.70
9119;BMP180;4594;50.994;7.126;2022-09-09T07:16:42;99970.00;;;24.30
9119;BMP180;4594;50.994;7.126;2022-09-09T07:19:09;99968.00;;;24.70
9119;BMP180;4594;50.994;7.126;2022-09-09T07:21:36;99976.00;;;25.20
9119;BMP180;4594;50.994;7.126;2022-09-09T07:24:03;99979.00;;;25.50
9119;BMP180;4594;50.994;7.126;2022-09-09T07:26:33;99979.00;;;25.70
9119;BMP180;4594;50.994;7.126;2022-09-09T07:28:59;99988.00;;;25.70
9119;BMP180;4594;50.994;7.126;2022-09-09T07:31:35;99989.00;;;25.60
9119;BMP180;4594;50.994;7.126;2022-09-09T07:34:03;99989.00;;;25.50
9119;BMP180;4594;50.994;7.126;2022-09-09T07:36:33;100000.00;;;25.50
9119;BMP180;4594;50.994;7.126;2022-09-09T07:39:09;99999.00;;;25.50
9119;BMP180;4594;50.994;7.126;2022-09-09T07:41:39;99984.00;;;25.40
9119;BMP180;4594;50.994;7.126;2022-09-09T07:44:20;99997.00;;;25.40
9119;BMP180;4594;50.994;7.126;2022-09-09T07:46:46;100006.00;;;25.40
9119;BMP180;4594;50.994;7.126;2022-09-09T07:49:13;100001.00;;;25.30
9119;BMP180;4594;50.994;7.126;2022-09-09T07:51:44;100007.00;;;25.40
9119;BMP180;4594;50.994;7.126;2022-09-09T07:54:13;99997.00;;;25.50
9119;BMP180;4594;50.994;7.126;2022-09-09T07:56:41;99990.00;;;25.90
9119;BMP180;4594;50.994;7.126;2022-09-09T07:59:08;100019.00;;;26.00
9119;BMP180;4594;50.994;7.126;2022-09-09T08:01:38;100008.00;;;26.20
9119;BMP180;4594;50.994;7.126;2022-09-09T08:04:17;100019.00;;;26.20
9119;BMP180;4594;50.994;7.126;2022-09-09T08:06:56;100023.00;;;26.10
9119;BMP180;4594;50.994;7.126;2022-09-09T08:09:23;100018.00;;;25.90
9119;BMP180;4594;50.994;7.126;2022-09-09T08:11:52;100017.00;;;25.80
9119;BMP180;4594;50.994;7.126;2022-09-09T08:14:18;100020.00;;;25.60
9119;BMP180;4594;50.994;7.126;2022-09-09T08:16:47;100009.00;;;25.40
9119;BMP180;4594;50.994;7.126;2022-09-09T08:19:14;100005.00;;;25.30
9119;BMP180;4594;50.994;7.126;2022-09-09T08:21:44;100019.00;;;25.30
9119;BMP180;4594;50.994;7.126;2022-09-09T08:24:11;100009.00;;;25.20
9119;BMP180;4594;50.994;7.126;2022-09-09T08:26:41;100009.00;;;25.00
9119;BMP180;4594;50.994;7.126;2022-09-09T08:29:10;100012.00;;;25.00
9119;BMP180;4594;50.994;7.126;2022-09-09T08:31:51;100020.00;;;25.00
9119;BMP180;4594;50.994;7.126;2022-09-09T08:34:18;100022.00;;;25.00
9119;BMP180;4594;50.994;7.126;2022-09-09T08:36:48;100027.00;;;24.90
9119;BMP180;4594;50.994;7.126;2022-09-09T08:39:17;100021.00;;;24.80
9119;BMP180;4594;50.994;7.126;2022-09-09T08:56:01;100008.00;;;24.70
9119;BMP180;4594;50.994;7.126;2022-09-09T08:58:34;100035.00;;;24.70
9119;BMP180;4594;50.994;7.126;2022-09-09T09:04:29;100033.00;;;24.70
9119;BMP180;4594;50.994;7.126;2022-09-09T09:07:18;100035.00;;;24.70
9119;BMP180;4594;50.994;7.126;2022-09-09T09:10:36;100030.00;;;24.70
9119;BMP180;4594;50.994;7.126;2022-09-09T09:14:02;100033.00;;;24.60
9119;BMP180;4594;50.994;7.126;2022-09-09T09:16:29;100038.00;;;24.70
9119;BMP180;4594;50.994;7.126;2022-09-09T09:18:59;100027.00;;;24.80
9119;BMP180;4594;50.994;7.126;2022-09-09T09:24:23;100031.00;;;25.50
9119;BMP180;4594;50.994;7.126;2022-09-09T09:26:51;100021.00;;;25.90
9119;BMP180;4594;50.994;7.126;2022-09-09T09:29:19;100025.00;;;26.30
9119;BMP180;4594;50.994;7.126;2022-09-09T09:31:56;100027.00;;;26.80
9119;BMP180;4594;50.994;7.126;2022-09-09T09:34:24;100017.00;;;27.00
9119;BMP180;4594;50.994;7.126;2022-09-09T09:36:57;100040.00;;;27.00
9119;BMP180;4594;50.994;7.126;2022-09-09T09:39:27;100040.00;;;26.90
9119;BMP180;4594;50.994;7.126;2022-09-09T09:41:53;100039.00;;;26.80
9119;BMP180;4594;50.994;7.126;2022-09-09T09:44:31;100037.00;;;26.70
9119;BMP180;4594;50.994;7.126;2022-09-09T09:47:20;100034.00;;;26.50
9119;BMP180;4594;50.994;7.126;2022-09-09T09:49:58;100034.00;;;26.40
9119;BMP180;4594;50.994;7.126;2022-09-09T09:52:30;100041.00;;;26.30
9119;BMP180;4594;50.994;7.126;2022-09-09T09:54:59;100047.00;;;26.20
9119;BMP180;4594;50.994;7.126;2022-09-09T09:57:31;100049.00;;;26.00
9119;BMP180;4594;50.994;7.126;2022-09-09T10:00:22;100040.00;;;25.80
9119;BMP180;4594;50.994;7.126;2022-09-09T10:02:49;100046.00;;;25.70
9119;BMP180;4594;50.994;7.126;2022-09-09T10:05:22;100050.00;;;25.60
9119;BMP180;4594;50.994;7.126;2022-09-09T10:08:14;100044.00;;;25.40
9119;BMP180;4594;50.994;7.126;2022-09-09T10:19:36;100031.00;;;25.50
9119;BMP180;4594;50.994;7.126;2022-09-09T10:22:28;100035.00;;;25.50
9119;BMP180;4594;50.994;7.126;2022-09-09T10:25:14;100036.00;;;25.50
9119;BMP180;4594;50.994;7.126;2022-09-09T10:31:08;100037.00;;;25.30
9119;BMP180;4594;50.994;7.126;2022-09-09T10:33:51;100021.00;;;25.30
9119;BMP180;4594;50.994;7.126;2022-09-09T10:36:27;100023.00;;;25.30
9119;BMP180;4594;50.994;7.126;2022-09-09T10:42:14;100031.00;;;25.20
9119;BMP180;4594;50.994;7.126;2022-09-09T10:45:18;100028.00;;;25.10
9119;BMP180;4594;50.994;7.126;2022-09-09T10:51:10;100021.00;;;25.20
9119;BMP180;4594;50.994;7.126;2022-09-09T10:54:31;100018.00;;;25.20
9119;BMP180;4594;50.994;7.126;2022-09-09T10:57:15;100017.00;;;25.30
9119;BMP180;4594;50.994;7.126;2022-09-09T10:59:48;100022.00;;;25.40
9119;BMP180;4594;50.994;7.126;2022-09-09T11:02:30;100013.00;;;25.50
9119;BMP180;4594;50.994;7.126;2022-09-09T11:05:05;100011.00;;;25.60
9119;BMP180;4594;50.994;7.126;2022-09-09T11:07:46;100014.00;;;25.70
9119;BMP180;4594;50.994;7.126;2022-09-09T11:10:23;100010.00;;;25.70
9119;BMP180;4594;50.994;7.126;2022-09-09T11:13:03;100004.00;;;25.90
9119;BMP180;4594;50.994;7.126;2022-09-09T11:15:46;100020.00;;;26.10
9119;BMP180;4594;50.994;7.126;2022-09-09T11:18:21;100024.00;;;26.30
9119;BMP180;4594;50.994;7.126;2022-09-09T11:20:56;100005.00;;;26.40
9119;BMP180;4594;50.994;7.126;2022-09-09T11:23:40;99998.00;;;26.60
9119;BMP180;4594;50.994;7.126;2022-09-09T11:26:17;100010.00;;;26.80
9119;BMP180;4594;50.994;7.126;2022-09-09T11:34:42;100006.00;;;27.10
9119;BMP180;4594;50.994;7.126;2022-09-09T11:37:41;100003.00;;;27.10
9119;BMP180;4594;50.994;7.126;2022-09-09T11:40:32;100007.00;;;27.10
9119;BMP180;4594;50.994;7.126;2022-09-09T11:43:28;99994.00;;;27.20
9119;BMP180;4594;50.994;7.126;2022-09-09T11:45:58;100006.00;;;27.20
9119;BMP180;4594;50.994;7.126;2022-09-09T11:48:42;100001.00;;;27.20
9119;BMP180;4594;50.994;7.126;2022-09-09T11:53:53;100008.00;;;27.20
9119;BMP180;4594;50.994;7.126;2022-09-09T11:56:48;99994.00;;;27.30
9119;BMP180;4594;50.994;7.126;2022-09-09T11:59:31;100003.00;;;27.40
9119;BMP180;4594;50.994;7.126;2022-09-09T12:02:22;100006.00;;;27.40
9119;BMP180;4594;50.994;7.126;2022-09-09T12:05:05;100002.00;;;27.40
9119;BMP180;4594;50.994;7.126;2022-09-09T12:08:00;100002.00;;;27.40
9119;BMP180;4594;50.994;7.126;2022-09-09T12:10:31;100001.00;;;27.40
9119;BMP180;4594;50.994;7.126;2022-09-09T12:13:29;100001.00;;;27.40
9119;BMP180;4594;50.994;7.126;2022-09-09T12:15:59;99999.00;;;27.40
9119;BMP180;4594;50.994;7.126;2022-09-09T12:18:39;99992.00;;;27.30
9119;BMP180;4594;50.994;7.126;2022-09-09T12:24:41;100001.00;;;27.20
9119;BMP180;4594;50.994;7.126;2022-09-09T12:27:28;99993.00;;;27.10
9119;BMP180;4594;50.994;7.126;2022-09-09T12:30:09;100003.00;;;27.00
9119;BMP180;4594;50.994;7.126;2022-09-09T12:32:36;99997.00;;;27.00
9119;BMP180;4594;50.994;7.126;2022-09-09T12:35:12;99990.00;;;27.00
9119;BMP180;4594;50.994;7.126;2022-09-09T12:40:22;99991.00;;;27.10
9119;BMP180;4594;50.994;7.126;2022-09-09T12:42:49;99977.00;;;27.10
9119;BMP180;4594;50.994;7.126;2022-09-09T12:45:19;99996.00;;;27.20
9119;BMP180;4594;50.994;7.126;2022-09-09T12:47:57;99989.00;;;27.20
9119;BMP180;4594;50.994;7.126;2022-09-09T12:50:34;99987.00;;;27.10
9119;BMP180;4594;50.994;7.126;2022-09-09T12:53:29;99987.00;;;27.10
9119;BMP180;4594;50.994;7.126;2022-09-09T12:56:01;99982.00;;;27.00
9119;BMP180;4594;50.994;7.126;2022-09-09T12:58:30;99985.00;;;26.90
9119;BMP180;4594;50.994;7.126;2022-09-09T13:01:02;99970.00;;;26.80
9119;BMP180;4594;50.994;7.126;2022-09-09T13:03:31;99974.00;;;26.80
9119;BMP180;4594;50.994;7.126;2022-09-09T13:06:11;99970.00;;;26.70
9119;BMP180;4594;50.994;7.126;2022-09-09T13:08:37;99967.00;;;26.80
9119;BMP180;4594;50.994;7.126;2022-09-09T13:11:12;99973.00;;;26.80
9119;BMP180;4594;50.994;7.126;2022-09-09T13:13:41;99968.00;;;26.80
9119;BMP180;4594;50.994;7.126;2022-09-09T13:16:29;99967.00;;;26.90
9119;BMP180;4594;50.994;7.126;2022-09-09T13:19:02;99971.00;;;27.00
9119;BMP180;4594;50.994;7.126;2022-09-09T13:21:39;99966.00;;;27.10
9119;BMP180;4594;50.994;7.126;2022-09-09T13:24:24;99965.00;;;27.10
9119;BMP180;4594;50.994;7.126;2022-09-09T13:27:32;99952.00;;;27.10
9119;BMP180;4594;50.994;7.126;2022-09-09T13:30:00;99953.00;;;27.10
9119;BMP180;4594;50.994;7.126;2022-09-09T13:32:28;99960.00;;;27.20
9119;BMP180;4594;50.994;7.126;2022-09-09T13:35:00;99950.00;;;27.20
9119;BMP180;4594;50.994;7.126;2022-09-09T13:37:38;99956.00;;;27.20
9119;BMP180;4594;50.994;7.126;2022-09-09T13:40:17;99952.00;;;27.20
9119;BMP180;4594;50.994;7.126;2022-09-09T13:42:44;99946.00;;;27.30
9119;BMP180;4594;50.994;7.126;2022-09-09T13:45:23;99969.00;;;27.30
9119;BMP180;4594;50.994;7.126;2022-09-09T13:47:54;99964.00;;;27.30
9119;BMP180;4594;50.994;7.126;2022-09-09T13:50:29;99966.00;;;27.30
9119;BMP180;4594;50.994;7.126;2022-09-09T13:52:57;99965.00;;;27.30
9119;BMP180;4594;50.994;7.126;2022-09-09T13:55:28;99963.00;;;27.30
9119;BMP180;4594;50.994;7.126;2022-09-09T13:58:00;99956.00;;;27.40
9119;BMP180;4594;50.994;7.126;2022-09-09T14:00:30;99957.00;;;27.30
9119;BMP180;4594;50.994;7.126;2022-09-09T14:02:57;99947.00;;;27.30
9119;BMP180;4594;50.994;7.126;2022-09-09T14:05:23;99941.00;;;27.40
9119;BMP180;4594;50.994;7.126;2022-09-09T14:07:49;99942.00;;;27.50
9119;BMP180;4594;50.994;7.126;2022-09-09T14:10:16;99937.00;;;27.60
9119;BMP180;4594;50.994;7.126;2022-09-09T14:12:41;99943.00;;;27.60
9119;BMP180;4594;50.994;7.126;2022-09-09T14:15:10;99945.00;;;27.60
9119;BMP180;4594;50.994;7.126;2022-09-09T14:17:36;99937.00;;;27.60
9119;BMP180;4594;50.994;7.126;2022-09-09T14:20:06;99952.00;;;27.60
9119;BMP180;4594;50.994;7.126;2022-09-09T14:22:36;99950.00;;;27.50
9119;BMP180;4594;50.994;7.126;2022-09-09T14:25:03;99946.00;;;27.50
9119;BMP180;4594;50.994;7.126;2022-09-09T14:27:29;99938.00;;;27.50
9119;BMP180;4594;50.994;7.126;2022-09-09T14:29:55;99942.00;;;27.50
9119;BMP180;4594;50.994;7.126;2022-09-09T14:32:21;99942.00;;;27.50
9119;BMP180;4594;50.994;7.126;2022-09-09T14:34:47;99944.00;;;27.50
9119;BMP180;4594;50.994;7.126;2022-09-09T14:37:16;99967.00;;;27.50
9119;BMP180;4594;50.994;7.126;2022-09-09T14:39:42;99947.00;;;27.50
9119;BMP180;4594;50.994;7.126;2022-09-09T14:42:13;99945.00;;;27.40
9119;BMP180;4594;50.994;7.126;2022-09-09T14:44:38;99960.00;;;27.40
9119;BMP180;4594;50.994;7.126;2022-09-09T14:47:05;99956.00;;;27.30
9119;BMP180;4594;50.994;7.126;2022-09-09T14:49:36;99956.00;;;27.30
9119;BMP180;4594;50.994;7.126;2022-09-09T14:52:03;99958.00;;;27.20
9119;BMP180;4594;50.994;7.126;2022-09-09T14:54:33;99960.00;;;27.20
9119;BMP180;4594;50.994;7.126;2022-09-09T14:56:59;99967.00;;;27.10
9119;BMP180;4594;50.994;7.126;2022-09-09T14:59:25;99994.00;;;27.10
9119;BMP180;4594;50.994;7.126;2022-09-09T15:01:50;99995.00;;;26.90
9119;BMP180;4594;50.994;7.126;2022-09-09T15:04:16;99997.00;;;26.70
9119;BMP180;4594;50.994;7.126;2022-09-09T15:06:45;99981.00;;;26.50
9119;BMP180;4594;50.994;7.126;2022-09-09T15:09:14;99977.00;;;26.20
9119;BMP180;4594;50.994;7.126;2022-09-09T15:11:40;99989.00;;;26.10
9119;BMP180;4594;50.994;7.126;2022-09-09T15:14:08;99984.00;;;26.00
9119;BMP180;4594;50.994;7.126;2022-09-09T15:16:34;99988.00;;;25.90
9119;BMP180;4594;50.994;7.126;2022-09-09T15:19:02;99985.00;;;25.80
9119;BMP180;4594;50.994;7.126;2022-09-09T15:21:35;99992.00;;;25.80
9119;BMP180;4594;50.994;7.126;2022-09-09T15:24:01;99983.00;;;25.70
9119;BMP180;4594;50.994;7.126;2022-09-09T15:26:27;99991.00;;;25.70
9119;BMP180;4594;50.994;7.126;2022-09-09T15:28:54;99983.00;;;25.70
9119;BMP180;4594;50.994;7.126;2022-09-09T15:31:23;99985.00;;;25.70
9119;BMP180;4594;50.994;7.126;2022-09-09T15:33:52;99973.00;;;25.70
9119;BMP180;4594;50.994;7.126;2022-09-09T15:36:25;99987.00;;;25.70
9119;BMP180;4594;50.994;7.126;2022-09-09T15:38:52;99990.00;;;25.70
9119;BMP180;4594;50.994;7.126;2022-09-09T15:41:21;99989.00;;;25.80
9119;BMP180;4594;50.994;7.126;2022-09-09T15:43:56;99990.00;;;25.80
9119;BMP180;4594;50.994;7.126;2022-09-09T15:46:23;99987.00;;;25.80
9119;BMP180;4594;50.994;7.126;2022-09-09T15:51:28;99984.00;;;25.60
9119;BMP180;4594;50.994;7.126;2022-09-09T15:53:58;99981.00;;;25.50
9119;BMP180;4594;50.994;7.126;2022-09-09T15:56:26;99983.00;;;25.50
9119;BMP180;4594;50.994;7.126;2022-09-09T15:58:55;99992.00;;;25.40
9119;BMP180;4594;50.994;7.126;2022-09-09T16:01:21;99998.00;;;25.40
9119;BMP180;4594;50.994;7.126;2022-09-09T16:03:47;100006.00;;;25.40
9119;BMP180;4594;50.994;7.126;2022-09-09T16:06:14;100012.00;;;25.40
9119;BMP180;4594;50.994;7.126;2022-09-09T16:08:43;100033.00;;;25.30
9119;BMP180;4594;50.994;7.126;2022-09-09T16:11:16;100030.00;;;25.20
9119;BMP180;4594;50.994;7.126;2022-09-09T16:13:43;100031.00;;;25.00
9119;BMP180;4594;50.994;7.126;2022-09-09T16:16:13;100049.00;;;24.90
9119;BMP180;4594;50.994;7.126;2022-09-09T16:18:44;100055.00;;;24.70
9119;BMP180;4594;50.994;7.126;2022-09-09T16:21:20;100042.00;;;24.60
9119;BMP180;4594;50.994;7.126;2022-09-09T16:23:47;100051.00;;;24.40
9119;BMP180;4594;50.994;7.126;2022-09-09T16:26:16;100047.00;;;24.30
9119;BMP180;4594;50.994;7.126;2022-09-09T16:28:42;100046.00;;;24.20
9119;BMP180;4594;50.994;7.126;2022-09-09T16:31:14;100035.00;;;24.10
9119;BMP180;4594;50.994;7.126;2022-09-09T16:33:40;100020.00;;;24.00